Time;durP1;ratioP1;P1;durP2;ratioP2;P2;SDS_P1;SDS_P2;PMS_P1;PMS_P2;Temp;Humidity;BMP_temperature;BMP_pressure;BME280_temperature;BME280_humidity;BME280_pressure;Samples;Min_cycle;Max_cycle;Signal;HPM_P1;HPM_P2
2022/07/08 00:00:44;;;;;;;;;3.67;2.67;;;;;20.27;46.54;102624.19;4956834;28;45418;-78
2022/07/08 00:03:09;;;;;;;;;2.00;1.00;;;;;20.39;46.40;102635.09;4956371;28;45386;-79
2022/07/08 00:05:35;;;;;;;;;2.33;1.67;;;;;20.40;46.50;102641.38;4956887;28;45345;-79
2022/07/08 00:08:01;;;;;;;;;1.00;0.75;;;;;20.26;46.78;102622.38;4956506;28;45257;-79
2022/07/08 00:10:27;;;;;;;;;2.00;2.00;;;;;20.17;46.98;102619.63;4956727;28;45473;-79
2022/07/08 00:12:52;;;;;;;;;2.00;2.00;;;;;20.22;47.04;102623.25;4956285;28;45501;-79
2022/07/08 00:15:18;;;;;;;;;2.00;2.00;;;;;20.18;47.13;102608.84;4956090;28;45535;-79
2022/07/08 00:17:43;;;;;;;;;2.33;2.00;;;;;20.20;47.11;102611.56;4956757;28;45820;-79
2022/07/08 00:20:09;;;;;;;;;4.33;2.67;;;;;20.21;46.94;102608.00;4956300;28;45567;-79
2022/07/08 00:22:35;;;;;;;;;1.33;1.33;;;;;20.28;46.97;102615.22;4956371;28;45595;-78
2022/07/08 00:25:01;;;;;;;;;4.67;3.00;;;;;20.33;46.65;102613.44;4956444;28;45499;-82
2022/07/08 00:27:26;;;;;;;;;4.33;2.00;;;;;20.33;46.44;102608.06;4955579;28;45499;-80
2022/07/08 00:29:51;;;;;;;;;4.00;3.00;;;;;20.23;46.80;102606.19;4956331;28;45470;-80
2022/07/08 00:32:18;;;;;;;;;1.00;1.00;;;;;20.27;46.80;102629.59;4958374;28;45805;-80
2022/07/08 00:34:43;;;;;;;;;3.67;3.67;;;;;20.22;47.15;102620.56;4959096;28;45465;-79
2022/07/08 00:37:09;;;;;;;;;3.00;3.00;;;;;20.22;47.00;102626.88;4958248;28;45411;-79
2022/07/08 00:39:34;;;;;;;;;3.00;3.00;;;;;20.17;47.18;102611.53;4957589;28;45424;-79
2022/07/08 00:42:00;;;;;;;;;4.00;3.00;;;;;20.27;46.92;102617.91;4958496;28;46069;-79
2022/07/08 00:44:26;;;;;;;;;2.33;2.33;;;;;20.17;46.97;102598.06;4959441;28;45406;-79
2022/07/08 00:46:51;;;;;;;;;2.00;2.00;;;;;20.22;47.09;102605.31;4958509;28;45373;-80
2022/07/08 00:49:17;;;;;;;;;6.00;2.00;;;;;20.23;46.82;102612.47;4959330;28;45499;-80
2022/07/08 00:51:43;;;;;;;;;2.67;1.67;;;;;20.12;47.12;102602.50;4959550;28;45410;-81
2022/07/08 00:54:12;;;;;;;;;5.00;3.00;;;;;20.21;46.80;102611.56;4959199;28;45503;-80
2022/07/08 00:56:38;;;;;;;;;3.50;2.50;;;;;20.01;47.18;102599.69;4959381;28;45506;-80
2022/07/08 00:59:04;;;;;;;;;2.00;2.00;;;;;20.06;47.49;102622.22;4959506;28;45422;-80
2022/07/08 01:01:29;;;;;;;;;3.33;2.00;;;;;19.67;47.91;102561.63;4959198;28;46245;-81
2022/07/08 01:03:54;;;;;;;;;5.00;2.00;;;;;20.05;47.39;102628.47;4959151;28;45183;-80
2022/07/08 01:06:20;;;;;;;;;2.00;2.00;;;;;19.95;47.58;102615.81;4957866;28;45396;-80
2022/07/08 01:08:45;;;;;;;;;2.67;2.00;;;;;19.81;47.51;102613.88;4959531;28;45433;-80
2022/07/08 01:11:12;;;;;;;;;4.00;2.00;;;;;19.48;47.90;102572.22;4958745;28;45520;-80
2022/07/08 01:13:38;;;;;;;;;2.00;2.00;;;;;19.85;48.02;102647.16;4959265;28;45537;-80
2022/07/08 01:16:04;;;;;;;;;3.67;1.67;;;;;19.76;48.27;102645.22;4959230;28;45481;-80
2022/07/08 01:18:31;;;;;;;;;4.00;2.33;;;;;19.68;48.06;102634.34;4958886;28;45508;-80
2022/07/08 01:20:57;;;;;;;;;4.00;3.00;;;;;19.52;48.29;102619.84;4959225;28;46412;-80
2022/07/08 01:23:23;;;;;;;;;4.33;2.00;;;;;19.67;48.30;102643.31;4958957;28;45393;-80
2022/07/08 01:25:49;;;;;;;;;2.00;2.00;;;;;19.46;48.70;102632.31;4958760;28;45327;-80
2022/07/08 01:28:15;;;;;;;;;3.00;2.33;;;;;19.49;48.61;102652.09;4959097;28;45500;-80
2022/07/08 01:30:41;;;;;;;;;2.00;1.00;;;;;19.32;48.99;102649.22;4958912;28;45679;-80
2022/07/08 01:33:07;;;;;;;;;1.33;1.33;;;;;19.31;49.14;102638.38;4958878;28;45359;-80
2022/07/08 01:35:33;;;;;;;;;2.67;2.67;;;;;19.41;49.19;102651.09;4959112;28;45409;-80
2022/07/08 01:37:58;;;;;;;;;5.33;3.00;;;;;19.31;49.20;102641.09;4958857;28;45485;-80
2022/07/08 01:40:24;;;;;;;;;3.67;2.00;;;;;19.29;49.23;102650.94;4958175;28;45363;-80
2022/07/08 01:42:49;;;;;;;;;3.33;2.00;;;;;19.28;49.14;102649.13;4958812;28;45390;-80
2022/07/08 01:45:15;;;;;;;;;3.33;1.67;;;;;19.14;49.16;102627.41;4958850;28;45324;-80
2022/07/08 01:47:40;;;;;;;;;3.33;1.67;;;;;19.25;49.51;102649.09;4957522;28;45317;-80
2022/07/08 01:50:06;;;;;;;;;2.33;2.00;;;;;19.10;49.51;102637.25;4958773;28;45326;-80
2022/07/08 01:52:31;;;;;;;;;3.00;2.00;;;;;19.19;49.54;102666.06;4958287;28;45280;-80
2022/07/08 01:54:57;;;;;;;;;3.00;1.33;;;;;19.04;49.51;102629.06;4958524;28;45548;-80
2022/07/08 01:57:22;;;;;;;;;1.00;1.00;;;;;19.18;49.13;102632.88;4957144;28;45396;-80
2022/07/08 01:59:49;;;;;;;;;3.00;1.67;;;;;19.30;49.17;102655.44;4958652;28;45386;-80
2022/07/08 02:02:18;;;;;;;;;5.67;1.67;;;;;19.21;49.32;102658.88;4957164;28;45354;-80
2022/07/08 02:04:43;;;;;;;;;2.67;1.67;;;;;18.88;49.53;102619.00;4958665;28;45443;-80
2022/07/08 02:07:09;;;;;;;;;3.67;2.00;;;;;19.08;49.54;102663.19;4957049;28;45611;-80
2022/07/08 02:09:35;;;;;;;;;5.00;3.33;;;;;19.01;49.56;102645.19;4958075;28;46424;-80
2022/07/08 02:12:20;;;;;;;;;4.00;2.00;;;;;19.15;49.31;102672.28;4958262;28;45572;-80
2022/07/08 02:14:45;;;;;;;;;4.00;3.00;;;;;19.16;49.36;102674.97;4958296;28;45518;-80
2022/07/08 02:17:11;;;;;;;;;3.33;2.67;;;;;18.98;49.49;102645.13;4958125;28;45506;-80
2022/07/08 02:19:36;;;;;;;;;2.33;1.67;;;;;18.92;49.67;102639.69;4958172;28;45534;-80
2022/07/08 02:22:03;;;;;;;;;3.00;2.33;;;;;19.01;49.67;102658.63;4956897;28;45429;-80
2022/07/08 02:24:28;;;;;;;;;2.00;2.00;;;;;18.83;50.07;102645.75;4957890;28;45385;-80
2022/07/08 02:26:53;;;;;;;;;4.33;2.33;;;;;18.76;49.79;102654.63;4958154;28;45378;-80
2022/07/08 02:29:19;;;;;;;;;1.67;1.67;;;;;18.85;50.03;102671.81;4957861;28;46714;-80
2022/07/08 02:31:44;;;;;;;;;4.00;3.00;;;;;18.70;49.90;102650.06;4958183;28;45273;-80
2022/07/08 02:34:09;;;;;;;;;3.33;2.67;;;;;18.69;50.23;102650.94;4957882;28;45396;-79
2022/07/08 02:36:35;;;;;;;;;3.33;2.00;;;;;18.51;50.10;102628.28;4957959;28;45440;-80
2022/07/08 02:39:00;;;;;;;;;2.00;2.00;;;;;18.71;50.25;102668.00;4956437;28;48054;-80
2022/07/08 02:41:26;;;;;;;;;2.33;1.00;;;;;18.70;50.24;102666.19;4957577;28;45400;-80
2022/07/08 02:43:51;;;;;;;;;7.67;3.67;;;;;18.59;50.37;102644.53;4957981;28;45395;-80
2022/07/08 02:46:16;;;;;;;;;3.33;2.67;;;;;18.65;50.61;102651.78;4957699;28;45367;-80
2022/07/08 02:48:42;;;;;;;;;2.00;2.00;;;;;18.61;50.11;102629.31;4957678;28;45409;-80
2022/07/08 02:51:07;;;;;;;;;2.00;1.00;;;;;18.79;50.06;102649.28;4957835;28;45406;-80
2022/07/08 02:53:32;;;;;;;;;4.67;3.00;;;;;18.89;50.00;102661.13;4956342;28;45495;-80
2022/07/08 02:55:58;;;;;;;;;4.67;1.67;;;;;18.91;50.14;102637.88;4957801;28;45405;-80
2022/07/08 02:58:23;;;;;;;;;2.00;2.00;;;;;18.88;49.78;102640.50;4957594;28;45386;-80
2022/07/08 03:00:49;;;;;;;;;4.33;2.67;;;;;18.84;49.79;102621.59;4957676;28;45480;-80
2022/07/08 03:03:14;;;;;;;;;4.00;3.00;;;;;18.85;49.71;102622.50;4957580;28;45586;-80
2022/07/08 03:05:39;;;;;;;;;2.00;2.00;;;;;18.89;49.59;102627.09;4957657;28;45487;-80
2022/07/08 03:08:04;;;;;;;;;2.33;2.33;;;;;18.98;50.07;102650.50;4957195;28;45413;-80
2022/07/08 03:10:30;;;;;;;;;1.00;1.00;;;;;18.92;49.62;102643.25;4956172;28;45389;-80
2022/07/08 03:12:55;;;;;;;;;3.00;2.00;;;;;19.00;49.70;102640.66;4957728;28;45511;-80
2022/07/08 03:15:21;;;;;;;;;4.67;3.00;;;;;18.93;49.43;102639.69;4957252;28;45553;-79
2022/07/08 03:17:46;;;;;;;;;3.00;2.67;;;;;18.81;49.90;102652.91;4957203;28;45879;-80
2022/07/08 03:20:12;;;;;;;;;4.00;2.67;;;;;18.88;49.71;102664.72;4957189;28;45410;-79
2022/07/08 03:22:37;;;;;;;;;4.00;3.00;;;;;18.75;49.80;102663.59;4957015;28;45325;-78
2022/07/08 03:25:04;;;;;;;;;4.00;2.67;;;;;18.76;49.92;102668.06;4958067;28;45154;-78
2022/07/08 03:27:29;;;;;;;;;8.00;4.67;;;;;18.78;50.13;102653.78;4976413;28;45435;-79
2022/07/08 03:29:55;;;;;;;;;4.00;3.33;;;;;18.75;49.80;102659.13;4976630;28;45388;-78
2022/07/08 03:32:20;;;;;;;;;2.00;2.00;;;;;18.83;50.11;102678.97;4976655;28;45397;-78
2022/07/08 03:34:45;;;;;;;;;3.00;1.67;;;;;18.73;49.97;102655.47;4976552;28;45579;-78
2022/07/08 03:37:11;;;;;;;;;3.00;3.00;;;;;18.88;49.92;102665.63;4976075;28;47003;-78
2022/07/08 03:39:36;;;;;;;;;4.00;2.33;;;;;18.90;50.01;102655.75;4976327;28;45399;-78
2022/07/08 03:42:02;;;;;;;;;1.33;1.33;;;;;18.92;50.17;102670.16;4976571;28;45451;-79
2022/07/08 03:44:27;;;;;;;;;4.00;2.67;;;;;19.01;49.52;102685.53;4976305;28;45544;-78
2022/07/08 03:46:53;;;;;;;;;2.00;2.00;;;;;18.96;49.41;102690.84;4976261;28;46134;-78
2022/07/08 03:49:18;;;;;;;;;2.00;2.00;;;;;18.98;49.46;102698.94;4974890;28;47194;-78
2022/07/08 03:51:44;;;;;;;;;4.67;3.00;;;;;18.85;50.03;102677.19;4976011;28;45416;-78
2022/07/08 03:54:10;;;;;;;;;2.67;2.67;;;;;18.87;50.05;102671.88;4974900;28;45473;-78
2022/07/08 03:56:35;;;;;;;;;4.00;2.67;;;;;18.93;49.98;102684.50;4975920;28;45523;-78
2022/07/08 03:59:01;;;;;;;;;1.33;1.00;;;;;18.95;50.06;102693.50;4976318;28;45590;-78
2022/07/08 04:01:27;;;;;;;;;1.67;1.00;;;;;19.02;49.84;102704.38;4976032;28;45435;-79
2022/07/08 04:03:52;;;;;;;;;3.00;3.00;;;;;19.04;49.67;102701.69;4976093;28;45445;-78
2022/07/08 04:06:18;;;;;;;;;3.33;2.67;;;;;19.08;49.88;102703.56;4975808;28;45457;-78
2022/07/08 04:08:43;;;;;;;;;5.00;5.00;;;;;18.99;49.68;102700.75;4975997;28;45336;-78
2022/07/08 04:11:09;;;;;;;;;2.00;2.00;;;;;18.79;49.72;102671.72;4974975;28;45254;-78
2022/07/08 04:13:34;;;;;;;;;4.00;3.33;;;;;18.92;49.90;102712.31;4975842;28;45433;-78
2022/07/08 04:16:00;;;;;;;;;2.33;2.33;;;;;18.92;49.93;102717.69;4975808;28;46095;-78
2022/07/08 04:18:26;;;;;;;;;2.67;2.67;;;;;18.86;50.00;102715.75;4975874;28;45365;-78
2022/07/08 04:20:51;;;;;;;;;5.00;3.67;;;;;18.65;50.13;102694.81;4975842;28;45373;-78
2022/07/08 04:23:16;;;;;;;;;4.00;3.33;;;;;18.75;50.50;102696.75;4975698;28;45326;-78
2022/07/08 04:25:42;;;;;;;;;4.67;3.33;;;;;18.83;50.03;102704.94;4974246;28;47114;-78
2022/07/08 04:28:07;;;;;;;;;4.33;3.33;;;;;18.89;50.17;102693.41;4975738;28;45372;-78
2022/07/08 04:30:33;;;;;;;;;6.33;3.33;;;;;18.99;49.66;102711.50;4975485;28;45361;-77
2022/07/08 04:32:58;;;;;;;;;2.67;2.67;;;;;18.96;49.67;102688.16;4975927;28;45365;-78
2022/07/08 04:35:23;;;;;;;;;3.67;3.67;;;;;19.00;49.96;102707.91;4975132;28;45600;-78
2022/07/08 04:37:50;;;;;;;;;4.00;3.00;;;;;18.93;49.69;102700.63;4975774;28;45700;-78
2022/07/08 04:40:15;;;;;;;;;4.00;4.00;;;;;18.88;49.47;102700.56;4975851;28;45526;-78
2022/07/08 04:42:41;;;;;;;;;5.00;5.00;;;;;19.02;49.72;102722.31;4975560;28;45578;-78
2022/07/08 04:45:07;;;;;;;;;3.33;3.00;;;;;18.97;49.89;102734.78;4975450;28;45452;-78
2022/07/08 04:47:33;;;;;;;;;5.00;3.33;;;;;18.95;49.57;102732.06;4975377;28;45450;-78
2022/07/08 04:49:59;;;;;;;;;4.33;3.33;;;;;18.96;49.70;102733.00;4975214;28;45493;-78
2022/07/08 04:52:24;;;;;;;;;4.33;3.00;;;;;18.90;49.87;102723.00;4975559;28;45558;-78
2022/07/08 04:54:50;;;;;;;;;3.33;3.33;;;;;18.95;49.79;102721.31;4975082;28;46213;-78
2022/07/08 04:57:15;;;;;;;;;4.00;4.00;;;;;18.93;49.74;102711.41;4975452;28;45428;-78
2022/07/08 04:59:41;;;;;;;;;3.33;3.33;;;;;18.96;49.74;102731.19;4974316;28;45435;-78
2022/07/08 05:02:07;;;;;;;;;4.00;4.00;;;;;18.87;49.63;102717.59;4975580;28;45372;-78
2022/07/08 05:04:33;;;;;;;;;4.33;4.33;;;;;18.86;49.90;102729.22;4973330;28;47064;-78
2022/07/08 05:06:58;;;;;;;;;6.00;4.00;;;;;18.86;50.06;102730.09;4974276;28;45384;-78
2022/07/08 05:09:23;;;;;;;;;1.50;1.50;;;;;18.89;49.60;102723.91;4975234;28;45400;-78
2022/07/08 05:11:49;;;;;;;;;4.00;3.00;;;;;18.95;49.57;102723.09;4973899;28;45412;-78
2022/07/08 05:14:14;;;;;;;;;5.67;4.00;;;;;18.95;49.83;102720.41;4975395;28;45764;-78
2022/07/08 05:16:41;;;;;;;;;3.33;3.33;;;;;18.96;49.79;102725.81;4976879;28;45429;-78
2022/07/08 05:19:08;;;;;;;;;6.00;3.00;;;;;18.99;49.48;102736.63;4978505;28;45371;-78
2022/07/08 05:21:36;;;;;;;;;4.00;4.00;;;;;18.95;49.73;102728.47;4978457;28;45551;-79
2022/07/08 05:24:05;;;;;;;;;5.00;3.67;;;;;18.99;49.55;102754.53;4978316;28;45426;-79
2022/07/08 05:26:30;;;;;;;;;4.33;4.33;;;;;18.84;49.76;102750.66;4978067;28;45484;-78
2022/07/08 05:28:56;;;;;;;;;4.33;3.00;;;;;18.84;50.14;102758.75;4968117;28;45528;-78
2022/07/08 05:31:21;;;;;;;;;4.00;3.33;;;;;18.92;49.99;102764.28;4950288;28;45571;-78
2022/07/08 05:33:46;;;;;;;;;4.00;4.00;;;;;18.99;49.74;102750.06;4954073;28;45525;-78
2022/07/08 05:36:12;;;;;;;;;3.33;3.33;;;;;18.91;50.04;102740.06;4954282;28;46369;-78
2022/07/08 05:38:37;;;;;;;;;5.00;3.67;;;;;18.89;49.81;102728.34;4954053;28;45520;-78
2022/07/08 05:41:02;;;;;;;;;4.33;3.33;;;;;19.01;49.84;102747.38;4954612;28;45470;-78
2022/07/08 05:43:28;;;;;;;;;5.33;4.33;;;;;19.00;50.00;102748.25;4953615;28;46465;-78
2022/07/08 05:45:53;;;;;;;;;5.00;5.00;;;;;19.06;49.61;102750.16;4956145;28;45512;-81
2022/07/08 05:48:18;;;;;;;;;4.67;4.67;;;;;18.79;50.97;102701.31;4956491;28;45435;-75
2022/07/08 05:50:44;;;;;;;;;4.00;4.00;;;;;19.20;49.79;102751.28;4946413;28;45426;-75
2022/07/08 05:53:09;;;;;;;;;5.33;3.67;;;;;19.27;49.15;102738.81;4945853;28;46134;-73
2022/07/08 05:55:34;;;;;;;;;3.00;3.00;;;;;19.38;49.21;102745.28;4943241;28;48469;-76
2022/07/08 05:58:00;;;;;;;;;5.00;3.67;;;;;19.51;49.04;102746.34;4950653;28;45346;-71
2022/07/08 06:00:25;;;;;;;;;3.33;3.00;;;;;19.57;48.83;102742.84;4958056;28;45472;-74
2022/07/08 06:02:51;;;;;;;;;3.67;3.67;;;;;19.63;48.69;102753.66;4955992;28;46161;-75
2022/07/08 06:05:16;;;;;;;;;4.00;4.00;;;;;19.61;48.46;102750.97;4958134;28;45429;-75
2022/07/08 06:07:42;;;;;;;;;3.00;3.00;;;;;19.60;48.43;102743.75;4965397;28;45444;-75
2022/07/08 06:10:08;;;;;;;;;4.33;3.33;;;;;19.64;48.47;102760.88;4957509;28;45579;-74
2022/07/08 06:12:33;;;;;;;;;6.33;3.33;;;;;19.68;48.29;102750.16;4952782;28;46291;-76
2022/07/08 06:14:58;;;;;;;;;4.67;3.00;;;;;19.73;48.17;102752.00;4940512;28;45607;-74
2022/07/08 06:17:24;;;;;;;;;4.67;4.00;;;;;19.72;48.05;102748.41;4942328;28;45732;-76
2022/07/08 06:19:59;;;;;;;;;5.67;4.00;;;;;19.85;48.08;102750.41;4946224;28;45574;-73
2022/07/08 06:22:24;;;;;;;;;5.33;3.00;;;;;19.83;47.89;102751.25;4944429;28;45529;-73
2022/07/08 06:24:49;;;;;;;;;4.67;4.67;;;;;19.80;47.92;102745.84;4940143;28;45497;-73
2022/07/08 06:27:15;;;;;;;;;4.67;3.67;;;;;19.85;47.80;102761.16;4942776;28;45916;-73
2022/07/08 06:29:40;;;;;;;;;6.00;4.33;;;;;19.88;47.40;102752.22;4938560;28;45525;-74
2022/07/08 06:32:06;;;;;;;;;5.00;5.00;;;;;19.96;47.35;102758.63;4951360;28;45556;-74
2022/07/08 06:34:31;;;;;;;;;3.67;3.67;;;;;19.87;47.37;102750.41;4943467;28;45568;-68
2022/07/08 06:36:56;;;;;;;;;6.67;5.33;;;;;19.91;47.57;102770.22;4943193;28;45593;-68
2022/07/08 06:39:22;;;;;;;;;6.00;4.67;;;;;19.66;47.36;102719.63;4938296;28;45586;-68
2022/07/08 06:41:47;;;;;;;;;5.00;3.67;;;;;19.92;47.64;102755.88;4937010;28;45567;-70
2022/07/08 06:44:12;;;;;;;;;7.33;4.33;;;;;20.08;47.27;102762.34;4936817;28;45502;-69
2022/07/08 06:46:38;;;;;;;;;5.00;4.67;;;;;20.18;47.75;102764.25;4937496;28;45669;-69
2022/07/08 06:49:03;;;;;;;;;4.33;3.33;;;;;20.17;47.13;102757.97;4937359;28;45577;-69
2022/07/08 06:51:28;;;;;;;;;4.00;4.00;;;;;20.23;47.14;102771.50;4935028;28;45441;-69
2022/07/08 06:56:38;;;;;;;;;5.00;5.00;;;;;20.26;46.59;102751.75;4942176;28;45483;-69
2022/07/08 06:59:06;;;;;;;;;9.00;6.00;;;;;20.37;46.80;102760.84;4947813;28;45401;-68
2022/07/08 07:01:31;;;;;;;;;5.67;4.67;;;;;20.37;46.62;102754.56;4933998;28;46339;-68
2022/07/08 07:03:56;;;;;;;;;4.67;4.33;;;;;20.46;46.45;102764.53;4917544;28;45912;-68
2022/07/08 07:06:22;;;;;;;;;6.67;5.33;;;;;20.52;46.22;102768.22;4948110;28;45852;-68
2022/07/08 07:08:47;;;;;;;;;3.67;2.67;;;;;20.58;46.48;102764.66;4947577;28;45625;-68
2022/07/08 07:11:13;;;;;;;;;8.33;5.33;;;;;20.69;46.29;102772.91;4945385;28;46320;-68
2022/07/08 07:13:38;;;;;;;;;4.00;4.00;;;;;20.76;45.68;102774.75;4946335;28;45790;-69
2022/07/08 07:16:04;;;;;;;;;4.00;4.00;;;;;20.78;45.53;102774.78;4947499;28;45846;-69
2022/07/08 07:18:30;;;;;;;;;4.00;3.67;;;;;20.79;45.93;102764.00;4946562;28;45594;-67
2022/07/08 07:20:55;;;;;;;;;6.67;4.67;;;;;20.84;45.74;102762.25;4944954;28;46114;-68
2022/07/08 07:23:20;;;;;;;;;4.00;4.00;;;;;20.92;45.54;102783.88;4943803;28;45436;-69
2022/07/08 07:25:46;;;;;;;;;4.67;4.67;;;;;20.89;45.47;102770.38;4945615;28;45687;-67
2022/07/08 07:28:11;;;;;;;;;7.67;6.67;;;;;20.88;45.17;102766.75;4936101;28;45408;-66
2022/07/08 07:30:36;;;;;;;;;5.00;5.00;;;;;20.85;45.09;102761.31;4928305;28;46435;-67
2022/07/08 07:33:02;;;;;;;;;5.67;4.33;;;;;20.91;45.61;102763.19;4945946;28;45556;-67
2022/07/08 07:35:27;;;;;;;;;6.00;4.00;;;;;20.94;45.20;102767.69;4943550;28;45515;-67
2022/07/08 07:37:52;;;;;;;;;5.00;5.00;;;;;20.93;44.35;102771.28;4947723;28;45566;-67
2022/07/08 07:40:18;;;;;;;;;5.33;4.00;;;;;20.96;44.94;102777.63;4947813;28;45583;-67
2022/07/08 07:42:43;;;;;;;;;6.33;4.33;;;;;20.78;44.70;102742.41;4945349;28;45436;-67
2022/07/08 07:45:08;;;;;;;;;3.00;3.00;;;;;20.90;44.49;102780.28;4946274;28;45621;-67
2022/07/08 07:47:34;;;;;;;;;4.00;4.00;;;;;20.83;44.85;102756.81;4947895;28;45869;-68
2022/07/08 07:50:00;;;;;;;;;4.33;4.33;;;;;20.88;44.58;102772.13;4946584;28;47351;-68
2022/07/08 07:52:26;;;;;;;;;6.00;6.00;;;;;20.99;44.82;102784.84;4948162;28;45379;-67
2022/07/08 07:54:51;;;;;;;;;6.00;6.00;;;;;20.98;43.99;102778.50;4945108;28;45689;-68
2022/07/08 07:57:17;;;;;;;;;5.67;4.67;;;;;20.90;44.44;102766.78;4946076;28;45511;-68
2022/07/08 07:59:43;;;;;;;;;7.00;6.00;;;;;21.00;44.51;102781.25;4946050;28;45978;-67
2022/07/08 08:02:09;;;;;;;;;6.00;5.00;;;;;20.99;44.69;102763.25;4944838;28;45771;-67
2022/07/08 08:04:34;;;;;;;;;6.00;4.67;;;;;21.10;44.61;102766.03;4938325;28;45519;-67
2022/07/08 08:07:00;;;;;;;;;7.67;5.00;;;;;21.20;44.43;102773.28;4945463;28;45485;-67
2022/07/08 08:09:26;;;;;;;;;4.33;4.33;;;;;21.20;44.25;102766.09;4945457;28;46382;-67
2022/07/08 08:11:52;;;;;;;;;6.33;5.00;;;;;21.25;43.91;102772.44;4945833;28;45460;-68
2022/07/08 08:14:17;;;;;;;;;7.00;5.00;;;;;21.23;43.81;102771.50;4946971;28;45397;-68
2022/07/08 08:16:42;;;;;;;;;7.00;6.00;;;;;21.28;44.03;102758.06;4946218;28;46485;-68
2022/07/08 08:19:08;;;;;;;;;5.00;5.00;;;;;21.28;43.72;102759.84;4945970;28;46943;-68
2022/07/08 08:21:36;;;;;;;;;4.33;4.00;;;;;21.41;43.55;102783.34;4948954;28;45520;-67
2022/07/08 08:24:01;;;;;;;;;7.00;7.00;;;;;21.31;43.51;102763.47;4947110;28;45699;-67
2022/07/08 08:26:27;;;;;;;;;5.33;5.33;;;;;21.36;43.66;102758.09;4945844;28;46389;-68
2022/07/08 08:28:52;;;;;;;;;6.00;6.00;;;;;21.45;43.62;102765.34;4945873;28;46156;-68
2022/07/08 08:31:18;;;;;;;;;7.00;6.00;;;;;21.48;43.41;102760.88;4947880;28;45547;-68
2022/07/08 08:33:43;;;;;;;;;6.00;6.00;;;;;21.46;43.40;102749.19;4948472;28;46403;-67
2022/07/08 08:36:08;;;;;;;;;4.33;4.33;;;;;21.58;43.16;102762.75;4948713;28;46117;-68
2022/07/08 08:38:34;;;;;;;;;6.67;6.00;;;;;21.56;43.08;102745.66;4947621;28;46194;-68
2022/07/08 08:40:59;;;;;;;;;6.00;6.00;;;;;21.58;42.49;102748.34;4946952;28;45473;-68
2022/07/08 08:43:25;;;;;;;;;7.67;5.33;;;;;21.57;42.94;102744.75;4947443;28;45457;-68
2022/07/08 08:45:52;;;;;;;;;7.67;6.33;;;;;21.54;42.19;102751.94;4944561;28;45519;-68
2022/07/08 08:48:22;;;;;;;;;6.00;6.00;;;;;21.54;42.84;102738.44;4944761;28;46297;-68
2022/07/08 08:50:55;;;;;;;;;5.33;5.33;;;;;21.59;42.57;102742.97;4946230;28;46530;-68
2022/07/08 08:53:30;;;;;;;;;5.67;5.33;;;;;21.55;42.65;102734.84;4947435;28;45575;-68
2022/07/08 08:55:57;;;;;;;;;9.00;6.33;;;;;21.72;42.58;102727.69;4949502;28;45438;-68
2022/07/08 08:58:22;;;;;;;;;5.00;5.00;;;;;21.79;42.36;102728.63;4951239;28;45611;-68
2022/07/08 09:00:48;;;;;;;;;8.33;7.00;;;;;21.77;42.16;102738.50;4950029;28;45558;-68
2022/07/08 09:03:13;;;;;;;;;7.00;7.00;;;;;21.77;41.32;102722.31;4942234;28;45924;-68
2022/07/08 09:05:39;;;;;;;;;7.33;7.00;;;;;21.88;41.59;102734.09;4951051;28;45522;-68
2022/07/08 09:08:04;;;;;;;;;5.67;5.67;;;;;21.87;41.56;102725.94;4951117;28;46463;-68
2022/07/08 09:10:30;;;;;;;;;6.00;6.00;;;;;21.87;41.41;102729.56;4950325;28;45451;-68
2022/07/08 09:13:11;;;;;;;;;7.00;5.00;;;;;21.93;41.28;102721.47;4948167;28;45510;-68
2022/07/08 09:15:42;;;;;;;;;7.33;5.00;;;;;21.95;41.79;102716.06;4948392;28;45500;-68
2022/07/08 09:18:18;;;;;;;;;7.00;5.67;;;;;21.97;41.52;102733.19;4950326;28;46281;-68
2022/07/08 09:20:50;;;;;;;;;7.00;6.00;;;;;21.93;41.09;102716.06;4950607;28;45483;-68
2022/07/08 09:23:18;;;;;;;;;5.33;4.67;;;;;21.88;41.13;102706.13;4951081;28;45578;-68
2022/07/08 09:25:48;;;;;;;;;6.00;5.00;;;;;22.03;41.51;102713.41;4950790;28;45573;-68
2022/07/08 09:28:34;;;;;;;;;8.00;6.00;;;;;21.98;41.03;102689.03;4951575;28;45776;-68
2022/07/08 09:31:02;;;;;;;;;5.00;5.00;;;;;22.14;41.09;102713.41;4949291;28;45488;-68
2022/07/08 09:33:28;;;;;;;;;5.00;5.00;;;;;22.15;40.82;102704.41;4950031;28;46521;-68
2022/07/08 09:35:55;;;;;;;;;5.00;5.00;;;;;22.24;40.88;102708.03;4948763;28;45815;-68
2022/07/08 09:38:22;;;;;;;;;7.67;6.00;;;;;22.27;40.46;102702.59;4948147;28;46442;-68
2022/07/08 09:40:55;;;;;;;;;6.00;6.00;;;;;22.41;40.70;102712.59;4949999;28;45477;-68
2022/07/08 09:43:21;;;;;;;;;6.67;6.00;;;;;22.49;40.41;102709.88;4950271;28;45747;-67
2022/07/08 09:45:47;;;;;;;;;6.33;6.00;;;;;22.57;40.28;102692.75;4947472;28;45911;-67
2022/07/08 09:48:12;;;;;;;;;4.67;4.67;;;;;22.64;40.08;102709.88;4948164;28;45525;-68
2022/07/08 09:50:47;;;;;;;;;5.33;5.00;;;;;22.42;39.34;102685.53;4949806;28;45634;-67
2022/07/08 09:53:16;;;;;;;;;7.67;6.00;;;;;22.48;40.05;102699.97;4943146;28;46018;-70
2022/07/08 09:55:43;;;;;;;;;5.67;4.00;;;;;22.55;40.20;102710.78;4948720;28;45607;-68
2022/07/08 09:58:12;;;;;;;;;5.00;5.00;;;;;22.66;39.79;102704.47;4947341;28;47807;-68
2022/07/08 10:00:38;;;;;;;;;6.33;4.00;;;;;22.68;39.67;102697.25;4948213;28;45543;-68
2022/07/08 10:03:05;;;;;;;;;8.33;6.33;;;;;22.77;39.50;102694.56;4937945;28;45557;-68
2022/07/08 10:05:30;;;;;;;;;7.00;6.00;;;;;22.64;38.78;102682.81;4946518;28;45493;-68
2022/07/08 10:07:56;;;;;;;;;5.00;5.00;;;;;22.73;38.92;102690.06;4945274;28;46300;-68
2022/07/08 10:10:23;;;;;;;;;7.33;6.67;;;;;22.86;39.00;102701.75;4947383;28;45487;-68
2022/07/08 10:12:50;;;;;;;;;5.00;5.00;;;;;22.91;39.15;102697.22;4948113;28;46611;-67
2022/07/08 10:15:17;;;;;;;;;9.67;6.00;;;;;22.91;38.29;102687.31;4948756;28;45522;-68
2022/07/08 10:17:45;;;;;;;;;4.67;4.67;;;;;23.01;38.37;102685.50;4947861;28;45543;-68
2022/07/08 10:20:15;;;;;;;;;5.67;5.00;;;;;23.10;38.24;102687.28;4948892;28;45439;-68
2022/07/08 10:22:44;;;;;;;;;5.67;4.33;;;;;23.11;37.95;102672.84;4948298;28;45532;-68
2022/07/08 10:25:10;;;;;;;;;4.33;4.33;;;;;23.09;38.34;102670.13;4947696;28;46494;-68
2022/07/08 10:27:36;;;;;;;;;5.00;4.00;;;;;23.24;37.99;102685.44;4948357;28;45568;-67
2022/07/08 10:30:17;;;;;;;;;4.33;4.33;;;;;23.34;38.13;102690.84;4947549;28;45602;-67
2022/07/08 10:32:46;;;;;;;;;5.00;5.00;;;;;23.35;37.93;102676.41;4947735;28;45513;-67
2022/07/08 10:35:21;;;;;;;;;5.00;5.00;;;;;23.40;37.81;102685.41;4947363;28;45452;-68
2022/07/08 10:37:56;;;;;;;;;5.67;4.33;;;;;23.39;37.59;102684.50;4944218;28;46028;-67
2022/07/08 10:40:40;;;;;;;;;5.00;5.00;;;;;23.42;37.84;102686.31;4945091;28;45729;-67
2022/07/08 10:43:20;;;;;;;;;5.67;4.67;;;;;23.45;37.69;102679.06;4946538;28;45564;-67
2022/07/08 10:45:59;;;;;;;;;7.33;4.00;;;;;23.60;37.85;102688.94;4942750;28;46107;-67
2022/07/08 10:48:49;;;;;;;;;7.00;4.33;;;;;23.53;37.04;102678.13;4944025;28;45543;-68
2022/07/08 10:51:24;;;;;;;;;5.00;4.00;;;;;23.59;37.14;102684.41;4944913;28;45993;-67
2022/07/08 10:53:53;;;;;;;;;4.67;4.00;;;;;23.62;36.12;102681.69;4946458;28;45793;-67
2022/07/08 10:56:49;;;;;;;;;4.67;4.67;;;;;23.67;37.16;102683.47;4948024;28;45477;-66
2022/07/08 10:59:20;;;;;;;;;4.33;4.33;;;;;23.72;36.56;102682.53;4947576;28;46643;-66
2022/07/08 11:02:16;;;;;;;;;3.67;3.67;;;;;23.83;37.47;102690.63;4951320;28;45820;-67
2022/07/08 11:04:41;;;;;;;;;7.33;5.00;;;;;23.87;36.88;102680.69;4941862;28;46483;-67
2022/07/08 11:07:16;;;;;;;;;4.67;4.00;;;;;23.93;36.53;102677.94;4947720;28;45581;-67
2022/07/08 11:09:42;;;;;;;;;6.00;4.00;;;;;23.96;36.94;102670.69;4944600;28;45476;-68
2022/07/08 11:12:16;;;;;;;;;3.67;3.67;;;;;23.96;35.67;102669.78;4950588;28;45628;-67
2022/07/08 11:14:45;;;;;;;;;9.33;5.33;;;;;24.00;35.57;102676.09;4949508;28;45924;-67
2022/07/08 11:17:24;;;;;;;;;6.67;5.00;;;;;24.04;36.20;102670.66;4951095;28;45573;-69
2022/07/08 11:19:51;;;;;;;;;4.33;4.33;;;;;24.12;36.08;102678.72;4947179;28;45542;-68
2022/07/08 11:22:18;;;;;;;;;5.67;4.00;;;;;24.17;36.08;102665.13;4935436;28;45496;-71
2022/07/08 11:24:44;;;;;;;;;5.00;5.00;;;;;24.25;35.71;102666.88;4925989;28;45763;-68